Shoemakersville, Pennsylvania
Current Conditions -  °F | °C
As of 10:54 AM on Thursday 18 Dec 2014 (Local Time) from KRDG Reporting Station
Overcast Overcast  
Wind Chill: 28°   Ceiling: 3500
Heat Index: 36°   Visibility: 10mi
Dew Point: 22°   Wind: 12mph
Humidity: 57%   Direction: 300°WNW
Pressure: 30.08"   Gusts: NA
Location:  40.5°N, 75.97°W
Report Text: KRDG 181554Z AUTO 30010KT 10SM OVC035 02/M06 A3008 RMK AO2 SLP193 T00221056
Loading
Personal Weather Stations






























Interactive Weather Map New forecast layout! Learn more

10-Day Weather Forecast

Advertisements
Track Severe Weather on mobile